Time;durP1;ratioP1;P1;durP2;ratioP2;P2;SDS_P1;SDS_P2;PMS_P1;PMS_P2;Temp;Humidity;BMP_temperature;BMP_pressure;BME280_temperature;BME280_humidity;BME280_pressure;Samples;Min_cycle;Max_cycle;Signal;HPM_P1;HPM_P2
2021/11/22 00:01:59;;;;;;;4.90;1.43;;;;;;;2.64;100.00;101241.59;7392628;19;20918;-47
2021/11/22 00:04:29;;;;;;;4.93;1.70;;;;;;;2.78;100.00;101237.59;7392418;19;20445;-48
2021/11/22 00:07:01;;;;;;;6.33;1.20;;;;;;;2.72;100.00;101247.28;7393999;19;20376;-52
2021/11/22 00:09:33;;;;;;;2.37;1.37;;;;;;;2.65;100.00;101250.09;7392094;19;20714;-52
2021/11/22 00:12:02;;;;;;;1.90;1.00;;;;;;;2.67;100.00;101256.25;7398440;19;20398;-48
2021/11/22 00:14:37;;;;;;;2.73;1.10;;;;;;;2.63;100.00;101261.84;7400349;19;20450;-47
2021/11/22 00:17:06;;;;;;;3.93;0.90;;;;;;;2.61;100.00;101260.84;7401714;19;20395;-49
2021/11/22 00:19:36;;;;;;;5.83;1.10;;;;;;;2.68;100.00;101270.75;7399549;19;20399;-49
2021/11/22 00:22:08;;;;;;;2.73;1.27;;;;;;;2.75;100.00;101267.94;7399862;19;20398;-50
2021/11/22 00:24:38;;;;;;;2.90;0.90;;;;;;;2.61;100.00;101273.59;7399018;19;20486;-51
2021/11/22 00:27:08;;;;;;;3.83;1.03;;;;;;;2.59;100.00;101273.44;7401414;19;20398;-50
2021/11/22 00:29:38;;;;;;;5.37;1.13;;;;;;;2.56;100.00;101276.63;7402410;19;20439;-49
2021/11/22 00:32:08;;;;;;;2.23;1.10;;;;;;;2.56;100.00;101279.19;7401930;19;20383;-53
2021/11/22 00:34:41;;;;;;;1.80;1.03;;;;;;;2.75;100.00;101285.78;7398946;19;20513;-53
2021/11/22 00:37:17;;;;;;;2.00;0.90;;;;;;;2.64;100.00;101290.00;7401717;19;20475;-48
2021/11/22 00:39:47;;;;;;;2.30;1.30;;;;;;;2.74;100.00;101294.19;7399267;19;20490;-53
2021/11/22 00:42:17;;;;;;;5.13;0.90;;;;;;;2.79;100.00;101295.47;7400313;19;20456;-46
2021/11/22 00:44:46;;;;;;;2.73;0.90;;;;;;;2.73;100.00;101300.06;7400038;19;20507;-47
2021/11/22 00:47:16;;;;;;;3.30;1.13;;;;;;;2.85;100.00;101300.16;7401919;19;20396;-46
2021/11/22 00:49:47;;;;;;;3.87;1.20;;;;;;;2.66;100.00;101306.31;7400244;19;20752;-52
2021/11/22 00:52:19;;;;;;;2.70;0.90;;;;;;;2.77;100.00;101306.31;7403160;19;21148;-46
2021/11/22 00:54:48;;;;;;;2.00;0.90;;;;;;;2.72;100.00;101317.78;7400898;19;20479;-48
2021/11/22 00:57:18;;;;;;;2.60;1.30;;;;;;;2.45;100.00;101327.47;7402511;19;20419;-50
2021/11/22 00:59:47;;;;;;;3.73;1.50;;;;;;;2.49;100.00;101322.75;7400582;19;20418;-48
2021/11/22 01:02:17;;;;;;;2.57;1.20;;;;;;;2.38;100.00;101329.50;7401307;19;20826;-46
2021/11/22 01:04:46;;;;;;;3.00;1.43;;;;;;;2.31;100.00;101345.03;7400654;19;20483;-47
2021/11/22 01:07:18;;;;;;;4.23;1.23;;;;;;;2.21;100.00;101350.97;7402320;19;20667;-48
2021/11/22 01:09:48;;;;;;;4.70;1.23;;;;;;;2.16;100.00;101354.81;7399947;19;20475;-50
2021/11/22 01:12:18;;;;;;;3.80;1.57;;;;;;;2.25;100.00;101360.66;7402994;19;20396;-49
2021/11/22 01:14:47;;;;;;;3.47;1.03;;;;;;;2.99;100.00;101365.03;7400978;19;20433;-48
2021/11/22 01:17:16;;;;;;;4.90;1.13;;;;;;;2.94;100.00;101366.31;7402052;19;20398;-46
2021/11/22 01:19:51;;;;;;;2.87;1.13;;;;;;;2.77;100.00;101373.44;7399855;19;20725;-50
2021/11/22 01:22:24;;;;;;;2.50;1.10;;;;;;;3.05;100.00;101378.28;7400207;19;20387;-46
2021/11/22 01:24:54;;;;;;;3.50;1.30;;;;;;;3.22;100.00;101379.66;7399544;19;20415;-49
2021/11/22 01:27:44;;;;;;;2.37;1.30;;;;;;;2.72;100.00;101389.13;7402400;19;20376;-51
2021/11/22 01:30:14;;;;;;;3.20;1.17;;;;;;;2.60;100.00;101399.19;7399822;19;20401;-47
2021/11/22 01:32:44;;;;;;;2.60;1.30;;;;;;;2.51;100.00;101400.19;7401809;19;20404;-48
2021/11/22 01:35:15;;;;;;;3.70;1.20;;;;;;;2.51;100.00;101410.38;7399686;19;20423;-48
2021/11/22 01:37:47;;;;;;;3.80;1.70;;;;;;;2.55;100.00;101411.53;7401954;19;20410;-47
2021/11/22 01:40:19;;;;;;;3.80;1.23;;;;;;;2.50;100.00;101417.88;7400768;19;20717;-49
2021/11/22 01:42:49;;;;;;;3.53;1.43;;;;;;;2.62;100.00;101405.31;7403088;19;20503;-46
2021/11/22 01:45:20;;;;;;;2.80;1.47;;;;;;;2.61;100.00;101413.72;7399566;19;20479;-47
2021/11/22 01:47:50;;;;;;;5.40;1.97;;;;;;;2.66;100.00;101415.00;7401659;19;20388;-45
2021/11/22 01:50:25;;;;;;;4.23;2.37;;;;;;;2.60;100.00;101420.47;7398198;19;20420;-51
2021/11/22 01:52:58;;;;;;;7.27;5.03;;;;;;;2.64;100.00;101431.78;7401170;19;20419;-48
2021/11/22 01:55:30;;;;;;;11.67;7.60;;;;;;;2.70;100.00;101432.31;7398622;19;20423;-49
2021/11/22 01:58:01;;;;;;;11.67;7.80;;;;;;;2.92;100.00;101431.59;7401498;19;20395;-49
2021/11/22 02:00:32;;;;;;;9.60;7.00;;;;;;;2.67;100.00;101432.06;7398762;19;20414;-52
2021/11/22 02:03:04;;;;;;;10.53;5.07;;;;;;;2.51;100.00;101437.53;7399213;19;20412;-50
2021/11/22 02:05:34;;;;;;;11.93;6.13;;;;;;;2.35;100.00;101445.50;7399466;19;20461;-49
2021/11/22 02:08:07;;;;;;;16.40;8.37;;;;;;;2.21;100.00;101452.81;7401156;19;20447;-50
2021/11/22 02:10:37;;;;;;;18.43;10.47;;;;;;;2.38;100.00;101450.84;7398523;19;20737;-48
2021/11/22 02:13:07;;;;;;;20.60;11.70;;;;;;;2.35;100.00;101454.03;7400037;19;20463;-51
2021/11/22 02:15:36;;;;;;;40.30;18.07;;;;;;;2.33;100.00;101455.56;7393025;19;20455;-51
2021/11/22 02:18:06;;;;;;;40.93;20.87;;;;;;;2.38;100.00;101453.41;7405044;19;20463;-52
2021/11/22 02:20:39;;;;;;;24.47;12.83;;;;;;;2.33;100.00;101459.75;7398078;19;20706;-52
2021/11/22 02:23:11;;;;;;;22.07;9.20;;;;;;;2.42;100.00;101458.88;7399035;19;20434;-50
2021/11/22 02:25:44;;;;;;;14.77;6.77;;;;;;;2.09;100.00;101469.56;7399276;19;20422;-48
2021/11/22 02:28:15;;;;;;;13.37;5.20;;;;;;;1.91;100.00;101472.31;7400449;19;20398;-48
2021/11/22 02:30:47;;;;;;;7.73;3.87;;;;;;;1.91;100.00;101479.06;7396649;19;20418;-52
2021/11/22 02:33:18;;;;;;;7.10;2.57;;;;;;;1.70;100.00;101472.19;7400697;19;20427;-50
2021/11/22 02:35:52;;;;;;;9.40;2.03;;;;;;;1.60;100.00;101488.28;7404533;19;20412;-49
2021/11/22 02:38:28;;;;;;;8.10;2.90;;;;;;;1.60;100.00;101490.81;7398549;19;20699;-51
2021/11/22 02:40:58;;;;;;;6.40;1.80;;;;;;;1.66;100.00;101487.03;7399489;19;20788;-53
2021/11/22 02:43:29;;;;;;;3.50;1.67;;;;;;;1.69;100.00;101493.28;7396807;19;20434;-53
2021/11/22 02:45:58;;;;;;;3.55;1.88;;;;;;;1.67;100.00;101499.00;7398399;19;20441;-53
2021/11/22 02:48:28;;;;;;;4.57;1.47;;;;;;;1.54;100.00;101499.56;7397948;19;20119;-50
2021/11/22 02:51:00;;;;;;;2.40;1.33;;;;;;;1.42;100.00;101501.88;7399182;19;20844;-50
2021/11/22 02:53:31;;;;;;;5.00;1.60;;;;;;;1.35;100.00;101510.63;7396511;19;20193;-52
2021/11/22 02:56:03;;;;;;;4.43;1.50;;;;;;;1.37;100.00;101509.09;7399167;19;20178;-49
2021/11/22 02:58:33;;;;;;;2.40;1.40;;;;;;;1.44;100.00;101502.94;7397949;19;20141;-52
2021/11/22 03:01:03;;;;;;;4.50;1.93;;;;;;;1.53;100.00;101505.41;7399596;19;20448;-52
2021/11/22 03:03:34;;;;;;;5.37;1.87;;;;;;;1.65;100.00;101511.63;7396653;19;20702;-44
2021/11/22 03:06:09;;;;;;;2.58;1.60;;;;;;;1.67;100.00;101515.19;7399141;19;20445;-44
2021/11/22 03:08:40;;;;;;;3.00;1.30;;;;;;;1.85;100.00;101515.03;7397309;19;20185;-45
2021/11/22 03:11:10;;;;;;;6.57;1.67;;;;;;;1.79;100.00;101520.47;7398884;19;20388;-46
2021/11/22 03:13:40;;;;;;;2.03;1.20;;;;;;;1.65;100.00;101524.34;7396276;19;20197;-45
2021/11/22 03:16:11;;;;;;;3.73;1.60;;;;;;;1.71;100.00;101532.53;7398820;19;20452;-45
2021/11/22 03:18:40;;;;;;;3.88;1.50;;;;;;;1.77;100.00;101531.25;7396973;19;20410;-47
2021/11/22 03:21:12;;;;;;;4.38;1.65;;;;;;;1.94;100.00;101533.66;7398356;19;20131;-45
2021/11/22 03:23:44;;;;;;;6.43;1.70;;;;;;;1.92;100.00;101532.66;7395616;19;20190;-45
2021/11/22 03:26:13;;;;;;;6.00;1.63;;;;;;;1.93;100.00;101530.97;7398466;19;20443;-46
2021/11/22 03:28:43;;;;;;;2.50;1.60;;;;;;;2.04;100.00;101537.03;7396579;19;20940;-48
2021/11/22 03:31:12;;;;;;;2.37;1.37;;;;;;;2.16;100.00;101540.69;7398433;19;20447;-45
2021/11/22 03:33:46;;;;;;;6.32;1.63;;;;;;;1.95;100.00;101542.22;7395228;19;20680;-44
2021/11/22 03:36:18;;;;;;;7.73;1.70;;;;;;;1.71;100.00;101535.06;7398588;19;20511;-49
2021/11/22 03:38:47;;;;;;;3.73;1.70;;;;;;;1.93;100.00;101534.44;7396603;19;20410;-46
2021/11/22 03:41:18;;;;;;;4.10;2.17;;;;;;;2.02;100.00;101529.25;7398404;19;20384;-50
2021/11/22 03:43:51;;;;;;;4.33;2.00;;;;;;;1.90;100.00;101539.25;7394768;19;20880;-48
2021/11/22 03:46:21;;;;;;;3.10;1.73;;;;;;;1.84;100.00;101543.81;7399871;19;20391;-50
2021/11/22 03:48:51;;;;;;;4.70;1.73;;;;;;;2.15;100.00;101546.50;7404838;19;20579;-45
2021/11/22 03:51:23;;;;;;;4.30;1.60;;;;;;;2.15;100.00;101556.69;7409522;19;20395;-47
2021/11/22 03:53:53;;;;;;;3.45;1.20;;;;;;;1.98;100.00;101556.09;7402310;19;20470;-44
2021/11/22 03:56:22;;;;;;;6.03;2.90;;;;;;;1.91;100.00;101558.88;7405201;19;20188;-45
2021/11/22 03:58:52;;;;;;;6.87;3.43;;;;;;;2.10;100.00;101565.59;7402913;19;20475;-47
2021/11/22 04:01:21;;;;;;;9.10;3.23;;;;;;;1.81;100.00;101563.88;7405158;19;20451;-51
2021/11/22 04:03:52;;;;;;;3.37;1.53;;;;;;;1.69;100.00;101559.44;7401663;19;20686;-45
2021/11/22 04:06:24;;;;;;;4.63;1.40;;;;;;;1.57;100.00;101564.34;7404972;19;20452;-46
2021/11/22 04:08:54;;;;;;;12.43;5.10;;;;;;;1.70;100.00;101573.97;7402807;19;20421;-48
2021/11/22 04:11:23;;;;;;;4.73;1.80;;;;;;;1.77;100.00;101577.97;7404926;19;20413;-47
2021/11/22 04:13:54;;;;;;;4.27;2.13;;;;;;;1.91;100.00;101576.69;7401373;19;20475;-50
2021/11/22 04:16:23;;;;;;;8.40;2.63;;;;;;;1.82;100.00;101580.91;7408321;19;20403;-47
2021/11/22 04:18:53;;;;;;;4.33;1.43;;;;;;;1.67;100.00;101586.41;7402466;19;20419;-47
2021/11/22 04:21:27;;;;;;;6.18;2.05;;;;;;;1.89;100.00;101579.06;7404480;19;20413;-46
2021/11/22 04:23:59;;;;;;;5.30;1.67;;;;;;;1.81;100.00;101594.41;7401174;19;20197;-47
2021/11/22 04:26:28;;;;;;;3.50;2.47;;;;;;;2.02;100.00;101585.28;7408700;19;20413;-46
2021/11/22 04:28:58;;;;;;;4.00;1.93;;;;;;;1.89;100.00;101593.44;7402084;19;20415;-46
2021/11/22 04:31:28;;;;;;;2.77;1.90;;;;;;;2.05;100.00;101589.75;7404276;19;20733;-48
2021/11/22 04:33:58;;;;;;;2.83;1.93;;;;;;;1.90;100.00;101590.16;7400710;19;20478;-50
2021/11/22 04:36:30;;;;;;;5.30;2.17;;;;;;;1.83;100.00;101603.06;7404347;19;20464;-51
2021/11/22 04:38:59;;;;;;;3.70;1.93;;;;;;;1.84;100.00;101600.66;7404949;19;20525;-45
2021/11/22 04:41:29;;;;;;;3.80;1.57;;;;;;;1.89;100.00;101613.81;7403945;19;20392;-52
2021/11/22 04:43:58;;;;;;;7.50;2.20;;;;;;;1.70;100.00;101613.78;7400430;19;20470;-49
2021/11/22 04:46:27;;;;;;;4.87;2.00;;;;;;;1.79;100.00;101621.38;7403598;19;20128;-48
2021/11/22 04:48:57;;;;;;;3.97;1.70;;;;;;;1.75;100.00;101623.63;7401441;19;20419;-45
2021/11/22 04:51:29;;;;;;;6.47;2.42;;;;;;;1.59;100.00;101628.97;7403454;19;20377;-44
2021/11/22 04:53:59;;;;;;;2.97;1.60;;;;;;;1.28;100.00;101632.88;7400317;19;20620;-45
2021/11/22 04:56:28;;;;;;;5.00;2.10;;;;;;;1.27;100.00;101629.41;7403261;19;20518;-46
2021/11/22 04:58:58;;;;;;;4.22;2.83;;;;;;;1.44;100.00;101627.56;7398232;19;20407;-46
2021/11/22 05:01:27;;;;;;;3.80;2.00;;;;;;;1.70;100.00;101629.94;7403393;19;20127;-46
2021/11/22 05:03:57;;;;;;;5.75;2.50;;;;;;;1.67;100.00;101637.31;7400038;19;20727;-44
2021/11/22 05:06:26;;;;;;;4.68;2.33;;;;;;;1.31;100.00;101633.16;7403116;19;20127;-44
2021/11/22 05:08:58;;;;;;;9.98;2.25;;;;;;;1.17;100.00;101645.47;7400669;19;20182;-44
2021/11/22 05:11:28;;;;;;;6.50;2.30;;;;;;;0.99;100.00;101646.28;7403137;19;20123;-47
2021/11/22 05:13:57;;;;;;;5.50;2.45;;;;;;;1.03;100.00;101638.19;7399553;19;20186;-46
2021/11/22 05:16:27;;;;;;;4.70;2.58;;;;;;;1.26;100.00;101631.81;7402728;19;20147;-48
2021/11/22 05:18:57;;;;;;;5.57;3.20;;;;;;;1.21;100.00;101641.56;7400672;19;20190;-45
2021/11/22 05:21:29;;;;;;;6.20;2.72;;;;;;;0.91;100.00;101638.81;7402418;19;20399;-44
2021/11/22 05:24:02;;;;;;;4.50;3.05;;;;;;;0.97;100.00;101642.69;7399054;19;20191;-44
2021/11/22 05:26:32;;;;;;;5.85;3.30;;;;;;;1.15;100.00;101653.69;7402342;19;20198;-44
2021/11/22 05:29:02;;;;;;;9.10;3.10;;;;;;;1.20;100.00;101650.84;7399752;19;20193;-45
2021/11/22 05:31:31;;;;;;;6.70;3.00;;;;;;;1.28;100.00;101650.66;7402257;19;20413;-48
2021/11/22 05:34:01;;;;;;;7.47;3.37;;;;;;;1.40;100.00;101651.81;7398937;19;20194;-48
2021/11/22 05:36:33;;;;;;;7.03;3.78;;;;;;;1.26;100.00;101652.16;7401966;19;20451;-50
2021/11/22 05:39:05;;;;;;;6.45;3.15;;;;;;;1.24;100.00;101654.56;7399451;19;20527;-47
2021/11/22 05:41:35;;;;;;;6.95;3.45;;;;;;;1.29;100.00;101660.09;7402137;19;20126;-47
2021/11/22 05:44:05;;;;;;;3.97;3.08;;;;;;;1.32;100.00;101660.34;7398719;19;20246;-45
2021/11/22 05:46:34;;;;;;;6.63;3.58;;;;;;;1.14;100.00;101659.53;7403898;19;20182;-50
2021/11/22 05:49:04;;;;;;;6.30;3.70;;;;;;;1.15;100.00;101663.88;7399342;19;20186;-45
2021/11/22 05:51:33;;;;;;;9.23;3.70;;;;;;;1.07;100.00;101671.66;7403316;19;20460;-49
2021/11/22 05:54:05;;;;;;;11.45;4.00;;;;;;;1.25;100.00;101678.34;7398512;19;20201;-53
2021/11/22 05:56:35;;;;;;;5.10;3.40;;;;;;;1.27;100.00;101680.28;7401274;19;20119;-48
2021/11/22 05:59:04;;;;;;;7.13;4.00;;;;;;;1.38;100.00;101673.66;7399253;19;20182;-49
2021/11/22 06:01:34;;;;;;;7.30;3.65;;;;;;;1.37;100.00;101676.94;7401266;19;20123;-53
2021/11/22 06:04:03;;;;;;;6.38;3.53;;;;;;;1.38;100.00;101682.94;7397250;19;20201;-52
2021/11/22 06:06:33;;;;;;;5.67;3.57;;;;;;;1.38;100.00;101686.38;7401175;19;20127;-51
2021/11/22 06:09:05;;;;;;;9.07;4.23;;;;;;;1.62;100.00;101691.97;7398156;19;20435;-52
2021/11/22 06:11:34;;;;;;;9.60;3.33;;;;;;;1.57;100.00;101698.25;7401037;19;20383;-54
2021/11/22 06:14:04;;;;;;;15.15;6.03;;;;;;;1.82;100.00;101692.91;7400051;19;20871;-49
2021/11/22 06:16:34;;;;;;;8.87;3.83;;;;;;;1.58;100.00;101703.50;7400546;19;20174;-51
2021/11/22 06:19:03;;;;;;;10.30;5.03;;;;;;;1.61;100.00;101705.44;7398501;19;20419;-51
2021/11/22 06:21:33;;;;;;;7.10;3.90;;;;;;;1.47;100.00;101707.59;7400330;19;20658;-49
2021/11/22 06:24:04;;;;;;;8.17;4.50;;;;;;;1.35;100.00;101709.84;7397041;19;20447;-45
2021/11/22 06:26:36;;;;;;;15.07;3.80;;;;;;;1.43;100.00;101713.13;7400349;19;20396;-45
2021/11/22 06:29:06;;;;;;;12.03;4.03;;;;;;;1.51;100.00;101718.03;7397631;19;20418;-46
2021/11/22 06:31:36;;;;;;;8.20;4.20;;;;;;;1.46;100.00;101722.69;7400137;19;20386;-47
2021/11/22 06:34:05;;;;;;;7.47;4.00;;;;;;;1.42;100.00;101731.69;7398771;19;20191;-46
2021/11/22 06:36:35;;;;;;;16.20;5.07;;;;;;;1.21;100.00;101740.72;7400356;19;20376;-45
2021/11/22 06:39:04;;;;;;;9.32;4.60;;;;;;;1.35;100.00;101739.50;7397696;19;20255;-47
2021/11/22 06:41:36;;;;;;;9.82;4.10;;;;;;;1.19;100.00;101753.28;7400145;19;20532;-48
2021/11/22 06:44:06;;;;;;;7.20;4.22;;;;;;;1.24;100.00;101755.38;7397479;19;20641;-46
2021/11/22 06:46:36;;;;;;;12.48;4.60;;;;;;;1.13;100.00;101752.69;7399724;19;20119;-46
2021/11/22 06:49:06;;;;;;;8.75;4.53;;;;;;;1.23;100.00;101753.59;7400493;19;20186;-45
2021/11/22 06:51:35;;;;;;;13.10;5.00;;;;;;;1.49;100.00;101753.53;7399837;19;20130;-45
2021/11/22 06:54:04;;;;;;;11.25;6.05;;;;;;;1.48;100.00;101752.63;7396652;19;20186;-47
2021/11/22 06:56:36;;;;;;;9.43;3.92;;;;;;;1.23;100.00;101759.56;7399197;19;20133;-46
2021/11/22 06:59:09;;;;;;;14.02;5.70;;;;;;;1.40;100.00;101763.72;7397374;19;20190;-48
2021/11/22 07:01:38;;;;;;;8.45;4.55;;;;;;;1.37;100.00;101768.50;7399598;19;20454;-46
2021/11/22 07:04:08;;;;;;;8.00;4.27;;;;;;;1.44;100.00;101780.16;7396334;19;20488;-46
2021/11/22 07:06:38;;;;;;;6.93;4.57;;;;;;;1.63;100.00;101780.25;7399036;19;20386;-47
2021/11/22 07:09:07;;;;;;;8.05;3.85;;;;;;;1.56;100.00;101781.34;7396694;19;20897;-45
2021/11/22 07:11:40;;;;;;;9.57;4.63;;;;;;;1.10;100.00;101793.09;7401364;19;20160;-47
2021/11/22 07:14:09;;;;;;;10.70;4.40;;;;;;;0.82;100.00;101795.47;7397277;19;20205;-45
2021/11/22 07:16:39;;;;;;;9.90;5.10;;;;;;;0.67;100.00;101808.47;7398602;19;20483;-50
2021/11/22 07:19:08;;;;;;;11.77;5.00;;;;;;;0.56;100.00;101808.16;7397088;19;20724;-45
2021/11/22 07:21:38;;;;;;;12.90;4.80;;;;;;;0.45;100.00;101804.56;7396843;19;20119;-53
2021/11/22 07:24:08;;;;;;;8.70;5.13;;;;;;;0.45;100.00;101810.53;7395045;19;20415;-47
2021/11/22 07:26:40;;;;;;;20.00;6.38;;;;;;;0.40;100.00;101812.63;7398419;19;20179;-47
2021/11/22 07:29:10;;;;;;;10.38;5.80;;;;;;;0.33;100.00;101822.91;7395685;19;20267;-49
2021/11/22 07:31:40;;;;;;;12.55;5.45;;;;;;;0.22;100.00;101824.38;7398313;19;20174;-47
2021/11/22 07:34:13;;;;;;;12.13;5.50;;;;;;;0.22;100.00;101820.94;7395138;19;20194;-48
2021/11/22 07:36:43;;;;;;;10.38;5.93;;;;;;;0.23;100.00;101827.81;7398076;19;20193;-47
2021/11/22 07:39:12;;;;;;;20.92;5.75;;;;;;;0.23;100.00;101823.63;7395811;19;20245;-50
2021/11/22 07:41:45;;;;;;;11.07;5.70;;;;;;;0.29;100.00;101827.53;7398416;19;20529;-46
2021/11/22 07:44:14;;;;;;;10.60;5.25;;;;;;;0.27;100.00;101827.38;7395925;19;20585;-46
2021/11/22 07:46:44;;;;;;;8.38;5.22;;;;;;;0.25;100.00;101828.84;7395795;19;20136;-47
2021/11/22 07:49:13;;;;;;;10.75;5.85;;;;;;;0.27;100.00;101842.59;7396840;19;20588;-50
2021/11/22 07:51:43;;;;;;;8.55;5.10;;;;;;;0.25;100.00;101834.84;7401420;19;20127;-45
2021/11/22 07:54:13;;;;;;;9.52;5.55;;;;;;;0.29;100.00;101840.22;7393984;19;20208;-49
2021/11/22 07:56:46;;;;;;;12.88;6.55;;;;;;;0.30;100.00;101845.44;7397409;19;20566;-50
2021/11/22 07:59:15;;;;;;;12.32;6.00;;;;;;;0.24;100.00;101837.22;7395170;19;20238;-47
2021/11/22 08:01:45;;;;;;;15.63;7.07;;;;;;;0.23;100.00;101835.41;7397882;19;20209;-44
2021/11/22 08:04:17;;;;;;;17.40;7.60;;;;;;;0.21;100.00;101831.84;7394524;19;20194;-45
2021/11/22 08:06:51;;;;;;;16.70;7.75;;;;;;;0.27;100.00;101837.53;7395336;19;20123;-45
2021/11/22 08:09:26;;;;;;;14.98;7.68;;;;;;;0.30;100.00;101839.47;7394957;19;20206;-46
2021/11/22 08:12:14;;;;;;;16.10;7.63;;;;;;;0.33;100.00;101843.22;7397060;19;20133;-45
2021/11/22 08:14:44;;;;;;;14.23;7.13;;;;;;;0.42;100.00;101847.41;7397007;19;20123;-46
2021/11/22 08:17:14;;;;;;;16.63;8.43;;;;;;;0.41;100.00;101854.13;7392287;19;20186;-47
2021/11/22 08:19:43;;;;;;;20.25;8.43;;;;;;;0.38;100.00;101857.28;7400949;19;20131;-46
2021/11/22 08:22:13;;;;;;;47.97;19.05;;;;;;;0.56;100.00;101858.97;7393034;19;20201;-47
2021/11/22 08:24:44;;;;;;;21.00;8.48;;;;;;;0.54;100.00;101858.81;7398331;19;20218;-44
2021/11/22 08:27:16;;;;;;;14.63;7.95;;;;;;;0.68;100.00;101862.75;7389181;19;20123;-47
2021/11/22 08:29:46;;;;;;;20.98;9.88;;;;;;;0.71;100.00;101872.31;7391423;19;20628;-45
2021/11/22 08:32:16;;;;;;;16.67;8.77;;;;;;;0.66;100.00;101876.91;7395476;19;20806;-47
2021/11/22 08:34:46;;;;;;;13.70;7.80;;;;;;;0.65;100.00;101883.66;7401921;19;20123;-44
2021/11/22 08:37:16;;;;;;;18.00;9.27;;;;;;;0.71;100.00;101882.47;7401027;19;20123;-44
2021/11/22 08:39:46;;;;;;;18.83;8.77;;;;;;;0.88;100.00;101886.69;7404054;19;20518;-44
2021/11/22 08:42:18;;;;;;;16.30;8.32;;;;;;;0.91;100.00;101886.97;7402895;19;20487;-45
2021/11/22 08:44:48;;;;;;;19.38;9.02;;;;;;;0.97;100.00;101896.88;7396865;19;20612;-46
2021/11/22 08:47:18;;;;;;;15.97;9.13;;;;;;;1.03;100.00;101897.47;7400315;19;20123;-49
2021/11/22 08:49:50;;;;;;;23.17;10.50;;;;;;;1.15;100.00;101898.69;7398422;19;20415;-47
2021/11/22 08:52:21;;;;;;;13.77;8.10;;;;;;;1.19;100.00;101913.47;7403280;19;20662;-49
2021/11/22 08:54:50;;;;;;;14.65;7.90;;;;;;;1.19;100.00;101910.91;7399687;19;20418;-44
2021/11/22 08:57:23;;;;;;;12.13;7.60;;;;;;;1.19;100.00;101913.47;7407044;19;20395;-49
2021/11/22 08:59:53;;;;;;;17.90;8.07;;;;;;;1.27;100.00;101918.44;7401654;19;20420;-52
2021/11/22 09:02:23;;;;;;;12.25;7.93;;;;;;;1.37;100.00;101917.69;7403176;19;20175;-51
2021/11/22 09:04:53;;;;;;;10.00;6.40;;;;;;;1.41;100.00;101923.22;7401804;19;20195;-44
2021/11/22 09:07:22;;;;;;;12.20;6.43;;;;;;;1.42;100.00;101931.72;7400927;19;20392;-50
2021/11/22 09:09:52;;;;;;;14.10;6.50;;;;;;;1.38;100.00;101937.28;7400449;19;20234;-53
2021/11/22 09:12:24;;;;;;;13.13;7.13;;;;;;;1.42;100.00;101944.44;7403120;19;20465;-50
2021/11/22 09:14:54;;;;;;;12.20;6.53;;;;;;;1.55;100.00;101944.00;7401538;19;20474;-48
2021/11/22 09:17:24;;;;;;;11.77;5.90;;;;;;;1.52;100.00;101947.16;7403137;19;20402;-52
2021/11/22 09:19:53;;;;;;;10.80;6.38;;;;;;;1.55;100.00;101956.72;7400331;19;20482;-52
2021/11/22 09:22:23;;;;;;;51.93;22.70;;;;;;;1.86;100.00;101946.97;7402613;19;20127;-54
2021/11/22 09:24:52;;;;;;;11.27;7.10;;;;;;;1.89;100.00;101950.69;7399634;19;20475;-44
2021/11/22 09:27:24;;;;;;;11.33;6.57;;;;;;;1.93;100.00;101954.44;7400595;19;20380;-44
2021/11/22 09:29:54;;;;;;;9.70;5.80;;;;;;;1.91;100.00;101958.50;7399797;19;20411;-44
2021/11/22 09:32:23;;;;;;;13.77;7.20;;;;;;;1.98;100.00;101960.88;7402199;19;20398;-45
2021/11/22 09:34:53;;;;;;;13.10;6.63;;;;;;;2.23;100.00;101963.22;7400563;19;20434;-44
2021/11/22 09:37:22;;;;;;;10.33;5.77;;;;;;;2.18;100.00;101961.88;7402297;19;20388;-43
2021/11/22 09:39:52;;;;;;;9.27;5.00;;;;;;;2.24;100.00;101967.56;7398735;19;20486;-44
2021/11/22 09:42:24;;;;;;;11.17;5.17;;;;;;;2.25;100.00;101961.69;7401903;19;20459;-51
2021/11/22 09:44:54;;;;;;;8.13;4.30;;;;;;;2.27;100.00;101972.91;7402356;19;20507;-45
2021/11/22 09:47:23;;;;;;;10.53;4.83;;;;;;;2.35;100.00;101967.69;7400059;19;20879;-43
2021/11/22 09:49:54;;;;;;;10.50;4.70;;;;;;;2.43;100.00;101971.84;7400016;19;20495;-44
2021/11/22 09:52:25;;;;;;;9.10;4.80;;;;;;;2.41;100.00;101973.34;7401713;19;20458;-46
2021/11/22 09:54:55;;;;;;;7.00;4.20;;;;;;;2.39;100.00;101965.56;7401109;19;20908;-44
2021/11/22 09:57:27;;;;;;;5.00;3.80;;;;;;;2.51;100.00;101970.91;7401281;19;20383;-44
2021/11/22 09:59:59;;;;;;;11.27;4.23;;;;;;;2.52;100.00;101970.16;7399403;19;20414;-46
2021/11/22 10:02:46;;;;;;;12.90;4.40;;;;;;;2.63;100.00;101976.28;7401087;19;20388;-46
2021/11/22 10:05:26;;;;;;;6.63;4.00;;;;;;;2.69;100.00;101963.19;7400880;19;20406;-45
2021/11/22 10:08:08;;;;;;;5.90;3.80;;;;;;;2.67;100.00;101962.16;7396045;19;20379;-44
2021/11/22 10:10:44;;;;;;;8.60;4.57;;;;;;;2.74;100.00;101969.63;7401100;19;20402;-46
2021/11/22 10:13:28;;;;;;;8.03;4.13;;;;;;;2.81;100.00;101966.88;7392864;19;20490;-48
2021/11/22 10:16:00;;;;;;;7.70;3.30;;;;;;;2.94;100.00;101978.22;7401127;19;20387;-48
2021/11/22 10:18:31;;;;;;;9.60;5.10;;;;;;;2.97;100.00;101973.38;7398245;19;20479;-53
2021/11/22 10:21:06;;;;;;;7.27;3.47;;;;;;;3.04;100.00;101975.75;7401417;19;20471;-49
2021/11/22 10:23:38;;;;;;;12.73;4.03;;;;;;;3.09;100.00;101984.72;7395010;19;20455;-49
2021/11/22 10:26:10;;;;;;;9.90;3.97;;;;;;;3.17;100.00;101987.97;7400533;19;20376;-45
2021/11/22 10:28:45;;;;;;;6.33;3.30;;;;;;;3.11;100.00;101987.41;7398347;19;20419;-46
2021/11/22 10:31:16;;;;;;;6.63;3.27;;;;;;;3.47;100.00;101988.97;7400170;19;20387;-47
2021/11/22 10:33:47;;;;;;;5.00;2.90;;;;;;;3.51;100.00;101995.25;7396295;19;20744;-49
2021/11/22 10:36:18;;;;;;;12.13;2.50;;;;;;;3.55;100.00;101992.22;7403692;19;20675;-49
2021/11/22 10:38:51;;;;;;;8.77;3.23;;;;;;;3.82;100.00;101995.44;7402313;19;20463;-47
2021/11/22 10:41:22;;;;;;;6.87;3.53;;;;;;;4.01;100.00;101995.41;7402700;19;20468;-44
2021/11/22 10:43:56;;;;;;;12.23;6.33;;;;;;;4.27;100.00;101988.25;7399233;19;20495;-46
2021/11/22 10:46:27;;;;;;;6.13;3.53;;;;;;;4.05;100.00;101997.47;7400539;19;20411;-51
2021/11/22 10:49:11;;;;;;;5.43;2.70;;;;;;;3.92;100.00;102009.91;7397326;19;20689;-45
2021/11/22 10:51:44;;;;;;;11.30;3.20;;;;;;;3.94;100.00;102008.38;7403169;19;20421;-50
2021/11/22 10:54:17;;;;;;;6.17;3.37;;;;;;;3.90;100.00;102012.31;7394765;19;20427;-46
2021/11/22 10:56:49;;;;;;;5.53;3.33;;;;;;;4.00;100.00;102023.38;7397237;19;20412;-46
2021/11/22 10:59:23;;;;;;;9.07;3.00;;;;;;;4.01;100.00;102020.06;7397428;19;20417;-53
2021/11/22 11:01:53;;;;;;;8.03;3.43;;;;;;;4.04;100.00;102020.31;7402128;19;20489;-47
2021/11/22 11:04:25;;;;;;;7.60;2.90;;;;;;;3.98;100.00;102030.91;7397532;19;20422;-47
2021/11/22 11:06:57;;;;;;;22.60;12.17;;;;;;;4.34;100.00;102018.66;7401812;19;20404;-47
2021/11/22 11:09:30;;;;;;;5.60;2.70;;;;;;;4.17;100.00;102022.31;7401623;19;20424;-45
2021/11/22 11:12:07;;;;;;;18.07;7.83;;;;;;;4.19;100.00;102016.56;7400858;19;20459;-46
2021/11/22 11:14:41;;;;;;;6.87;2.80;;;;;;;4.21;100.00;102020.91;7400269;19;20426;-45
2021/11/22 11:17:14;;;;;;;6.47;2.40;;;;;;;4.19;100.00;102028.44;7399243;19;20407;-49
2021/11/22 11:19:44;;;;;;;3.50;2.03;;;;;;;4.25;100.00;102025.53;7398955;19;20417;-45
2021/11/22 11:22:14;;;;;;;9.20;3.13;;;;;;;4.19;100.00;102037.00;7402084;19;20471;-46
2021/11/22 11:24:44;;;;;;;3.30;1.70;;;;;;;4.21;100.00;102036.25;7398845;19;20856;-44
2021/11/22 11:27:31;;;;;;;6.60;2.20;;;;;;;4.35;100.00;102040.91;7398007;19;20403;-45
2021/11/22 11:30:03;;;;;;;2.90;1.73;;;;;;;4.42;100.00;102037.25;7397789;19;20423;-48
2021/11/22 11:32:33;;;;;;;7.40;2.20;;;;;;;4.41;100.00;102038.88;7398450;19;20391;-46
2021/11/22 11:35:05;;;;;;;6.27;2.00;;;;;;;4.41;100.00;102046.56;7398242;19;20438;-45
2021/11/22 11:37:50;;;;;;;11.80;4.50;;;;;;;4.55;100.00;102051.97;7397572;19;20455;-48
2021/11/22 11:40:26;;;;;;;6.43;1.90;;;;;;;4.53;100.00;102049.31;7397261;19;20387;-45